Time;durP1;ratioP1;P1;durP2;ratioP2;P2;SDS_P1;SDS_P2;PMS_P1;PMS_P2;Temp;Humidity;BMP_temperature;BMP_pressure;BME280_temperature;BME280_humidity;BME280_pressure;Samples;Min_cycle;Max_cycle;Signal;HPM_P1;HPM_P2
2022/10/08 00:01:29;;;;;;;16.10;7.53;;;13.80;99.90;;;;;;5051758;28;20025;-49
2022/10/08 00:03:56;;;;;;;11.30;5.95;;;13.80;99.90;;;;;;5049705;28;20400;-50
2022/10/08 00:06:27;;;;;;;15.30;7.20;;;13.80;99.90;;;;;;5051755;28;20021;-48
2022/10/08 00:08:56;;;;;;;14.13;6.57;;;13.80;99.90;;;;;;5051479;28;20029;-50
2022/10/08 00:11:24;;;;;;;18.23;7.82;;;13.70;99.90;;;;;;5051497;28;20170;-49
2022/10/08 00:13:52;;;;;;;15.20;7.75;;;13.70;99.90;;;;;;5050903;28;20025;-48
2022/10/08 00:16:26;;;;;;;17.35;7.38;;;13.70;99.90;;;;;;5051345;28;20099;-48
2022/10/08 00:18:55;;;;;;;14.80;8.00;;;13.70;99.90;;;;;;5051316;28;20135;-46
2022/10/08 00:21:28;;;;;;;18.63;7.30;;;13.70;99.90;;;;;;5054497;28;20431;-50
2022/10/08 00:23:55;;;;;;;12.75;7.22;;;13.70;99.90;;;;;;5051738;28;20378;-51
2022/10/08 00:26:23;;;;;;;13.23;6.38;;;13.70;99.90;;;;;;5052408;28;20033;-50
2022/10/08 00:28:51;;;;;;;12.82;6.68;;;13.80;99.90;;;;;;5052067;28;20028;-53
2022/10/08 00:31:20;;;;;;;16.50;7.60;;;13.70;99.90;;;;;;5052172;28;20021;-52
2022/10/08 00:33:50;;;;;;;14.27;6.85;;;13.80;99.90;;;;;;5050856;28;20025;-54
2022/10/08 00:36:15;;;;;;;10.85;6.85;;;13.80;99.90;;;;;;5051525;28;20109;-53
2022/10/08 00:38:41;;;;;;;14.70;8.05;;;13.80;99.90;;;;;;5051188;28;20440;-46
2022/10/08 00:41:15;;;;;;;16.17;7.63;;;13.80;99.90;;;;;;5052087;28;20033;-51
2022/10/08 00:43:50;;;;;;;12.77;7.00;;;13.80;99.90;;;;;;5057617;28;20078;-51
2022/10/08 00:46:18;;;;;;;;;;;13.80;99.90;;;;;;5058147;28;20025;-56
2022/10/08 00:48:44;;;;;;;13.02;6.50;;;13.80;99.90;;;;;;5057552;28;19995;-52
2022/10/08 00:51:10;;;;;;;18.25;7.43;;;13.80;99.90;;;;;;5057749;28;20091;-49
2022/10/08 00:53:35;;;;;;;16.83;6.93;;;13.80;99.90;;;;;;5057414;28;20025;-50
2022/10/08 00:56:02;;;;;;;15.38;6.65;;;13.80;99.90;;;;;;5056479;28;20186;-49
2022/10/08 00:58:30;;;;;;;17.75;6.38;;;13.80;99.90;;;;;;5056247;28;20449;-50
2022/10/08 01:00:57;;;;;;;9.75;6.72;;;14.10;99.90;;;;;;5057733;28;20112;-50
2022/10/08 01:03:22;;;;;;;16.88;7.63;;;13.90;99.90;;;;;;5057461;28;20168;-49
2022/10/08 01:05:59;;;;;;;14.48;7.43;;;13.80;99.90;;;;;;5057713;28;20025;-49
2022/10/08 01:08:33;;;;;;;12.90;7.03;;;13.90;99.90;;;;;;5057453;28;20041;-50
2022/10/08 01:11:19;;;;;;;11.25;6.80;;;13.90;99.90;;;;;;5057368;28;20487;-44
2022/10/08 01:14:11;;;;;;;14.57;6.82;;;13.90;99.90;;;;;;5057553;28;20449;-48
2022/10/08 01:16:57;;;;;;;15.27;7.00;;;13.80;99.90;;;;;;5057670;28;20025;-54
2022/10/08 01:19:47;;;;;;;13.65;6.78;;;13.80;99.90;;;;;;5057179;28;20025;-50
2022/10/08 01:22:37;;;;;;;11.40;5.85;;;13.80;99.90;;;;;;5057500;28;20104;-50
2022/10/08 01:25:31;;;;;;;16.55;7.55;;;13.70;99.90;;;;;;5057687;28;20029;-49
2022/10/08 01:28:02;;;;;;;11.48;6.10;;;13.70;99.90;;;;;;5053634;22;20144;-49
2022/10/08 01:30:29;;;;;;;62.70;34.13;;;13.70;99.90;;;;;;5017611;28;20478;-46
2022/10/08 01:33:11;;;;;;;21.10;10.82;;;13.70;99.90;;;;;;5017628;28;20428;-47
2022/10/08 01:35:43;;;;;;;12.90;5.57;;;13.70;99.90;;;;;;5017692;28;20025;-47
2022/10/08 01:38:13;;;;;;;16.05;6.38;;;13.70;99.90;;;;;;5017753;28;20050;-45
2022/10/08 01:40:42;;;;;;;20.98;6.65;;;13.70;99.90;;;;;;5016328;28;20113;-46
2022/10/08 01:43:11;;;;;;;10.70;5.93;;;13.80;99.90;;;;;;5016170;28;20022;-47
2022/10/08 01:45:42;;;;;;;10.13;6.38;;;13.80;99.90;;;;;;5016349;28;20022;-48
2022/10/08 01:48:13;;;;;;;14.60;5.75;;;13.80;99.90;;;;;;5017573;28;20485;-46
2022/10/08 01:50:54;;;;;;;16.67;7.10;;;13.80;99.90;;;;;;5017599;28;20060;-46
2022/10/08 01:53:23;;;;;;;16.08;6.63;;;13.80;99.90;;;;;;5014787;28;20029;-47
2022/10/08 01:55:52;;;;;;;18.45;7.28;;;13.80;99.90;;;;;;5014478;28;20022;-46
2022/10/08 01:58:26;;;;;;;11.88;6.03;;;13.80;99.90;;;;;;5014492;28;20049;-46
2022/10/08 02:00:54;;;;;;;19.70;7.13;;;13.70;99.90;;;;;;5014446;28;20052;-46
2022/10/08 02:03:20;;;;;;;15.70;6.53;;;13.60;99.90;;;;;;5014319;28;20026;-49
2022/10/08 02:05:51;;;;;;;20.88;6.68;;;13.60;99.90;;;;;;5013414;28;20068;-44
2022/10/08 02:08:17;;;;;;;11.60;6.32;;;13.50;99.90;;;;;;5013429;28;20509;-45
2022/10/08 02:10:43;;;;;;;19.08;6.35;;;13.50;99.90;;;;;;5015130;28;20076;-44
2022/10/08 02:13:09;;;;;;;16.52;6.95;;;13.40;99.90;;;;;;5013986;28;20482;-50
2022/10/08 02:15:50;;;;;;;11.18;6.32;;;13.40;99.90;;;;;;5013985;28;20030;-45
2022/10/08 02:18:21;;;;;;;16.80;6.60;;;13.30;99.90;;;;;;5015206;28;20402;-44
2022/10/08 02:20:54;;;;;;;12.77;5.95;;;13.30;99.90;;;;;;5014240;28;20444;-45
2022/10/08 02:24:01;;;;;;;21.13;6.10;;;13.30;99.90;;;;;;5013938;28;20041;-45
2022/10/08 02:26:30;;;;;;;;;;;13.30;99.90;;;;;;4994450;28;20034;-43
2022/10/08 02:29:09;;;;;;;11.93;6.03;;;13.30;99.90;;;;;;5013449;28;19975;-46
2022/10/08 02:31:58;;;;;;;11.30;5.97;;;13.30;99.90;;;;;;5013992;28;20022;-45
2022/10/08 02:34:54;;;;;;;14.02;6.55;;;13.30;99.90;;;;;;5013985;28;20030;-45
2022/10/08 02:37:23;;;;;;;15.43;5.50;;;13.40;99.90;;;;;;5013915;28;20487;-46
2022/10/08 02:39:56;;;;;;;14.15;5.47;;;13.30;99.90;;;;;;5014295;28;20379;-44
2022/10/08 02:42:24;;;;;;;10.48;5.63;;;13.30;99.90;;;;;;5013578;28;20482;-45
2022/10/08 02:45:00;;;;;;;9.80;5.53;;;13.20;99.90;;;;;;5012346;28;20040;-44
2022/10/08 02:47:30;;;;;;;9.32;6.00;;;13.20;99.90;;;;;;5013696;28;20524;-45
2022/10/08 02:50:01;;;;;;;16.67;7.10;;;13.20;99.90;;;;;;5013533;28;20024;-43
2022/10/08 02:52:33;;;;;;;11.95;6.10;;;13.20;99.90;;;;;;5013329;28;20325;-45
2022/10/08 02:55:01;;;;;;;11.60;6.20;;;13.20;99.90;;;;;;5013555;28;20026;-45
2022/10/08 02:57:52;;;;;;;8.90;4.88;;;13.20;99.90;;;;;;5013394;28;20109;-45
2022/10/08 03:00:17;;;;;;;11.32;6.22;;;13.10;99.90;;;;;;5012404;28;20385;-45
2022/10/08 03:02:54;;;;;;;11.68;6.32;;;13.10;99.90;;;;;;5013691;28;20028;-45
2022/10/08 03:05:20;;;;;;;11.70;6.60;;;13.10;99.90;;;;;;5013048;28;20397;-45
2022/10/08 03:07:49;;;;;;;15.68;5.90;;;13.10;99.90;;;;;;5013258;28;20508;-44
2022/10/08 03:10:15;;;;;;;10.00;5.53;;;13.10;99.90;;;;;;5013097;28;20072;-45
2022/10/08 03:12:41;;;;;;;9.88;5.13;;;13.00;99.90;;;;;;5012948;28;20034;-46
2022/10/08 03:15:10;;;;;;;17.42;5.15;;;13.10;99.90;;;;;;5013082;28;20053;-45
2022/10/08 03:17:40;;;;;;;16.27;6.38;;;13.10;99.90;;;;;;5012856;28;20476;-44
2022/10/08 03:20:07;;;;;;;11.50;5.45;;;13.00;99.90;;;;;;5013913;28;20053;-48
2022/10/08 03:22:33;;;;;;;12.77;5.53;;;12.90;99.90;;;;;;5013574;28;20014;-44
2022/10/08 03:24:59;;;;;;;10.00;4.38;;;12.90;99.90;;;;;;5013183;28;20080;-45
2022/10/08 03:27:25;;;;;;;12.07;5.32;;;12.80;99.90;;;;;;5014016;28;20070;-45
2022/10/08 03:29:55;;;;;;;8.20;5.25;;;12.80;99.90;;;;;;5013381;28;20058;-45
2022/10/08 03:32:25;;;;;;;11.20;5.20;;;12.70;99.90;;;;;;5011603;28;20105;-45
2022/10/08 03:34:51;;;;;;;10.93;4.43;;;12.70;99.90;;;;;;5012791;28;20022;-44
2022/10/08 03:37:17;;;;;;;14.50;6.03;;;12.60;99.90;;;;;;5012496;28;20486;-45
2022/10/08 03:39:43;;;;;;;10.05;4.80;;;12.60;99.90;;;;;;5011139;28;20573;-46
2022/10/08 03:42:08;;;;;;;11.77;5.03;;;12.50;99.90;;;;;;5012305;28;20097;-45
2022/10/08 03:44:34;;;;;;;13.55;4.43;;;12.50;99.90;;;;;;5012427;28;20030;-48
2022/10/08 03:47:00;;;;;;;9.57;4.63;;;12.40;99.90;;;;;;5012371;28;20077;-45
2022/10/08 03:49:25;;;;;;;8.80;4.60;;;12.50;99.90;;;;;;5012503;28;20509;-48
2022/10/08 03:51:51;;;;;;;13.85;4.15;;;12.50;99.90;;;;;;5010947;28;20030;-46
2022/10/08 03:54:17;;;;;;;9.05;4.25;;;12.50;99.90;;;;;;5012306;28;20026;-45
2022/10/08 03:56:42;;;;;;;9.57;4.70;;;12.50;99.90;;;;;;5012181;28;20072;-44
2022/10/08 03:59:08;;;;;;;9.82;4.22;;;12.60;99.90;;;;;;5012170;28;20516;-46
2022/10/08 04:01:34;;;;;;;10.05;4.65;;;12.60;99.90;;;;;;5012276;28;20466;-44
2022/10/08 04:03:59;;;;;;;7.25;4.75;;;12.60;99.90;;;;;;5011920;28;20041;-48
2022/10/08 04:06:25;;;;;;;10.75;4.82;;;12.60;99.90;;;;;;5012039;28;20494;-43
2022/10/08 04:08:51;;;;;;;19.00;5.53;;;12.60;99.90;;;;;;5012188;28;20056;-46
2022/10/08 04:11:17;;;;;;;8.70;6.43;;;12.60;99.90;;;;;;5011063;28;20025;-48
2022/10/08 04:13:43;;;;;;;17.17;6.28;;;12.60;99.90;;;;;;5011760;28;20041;-49
2022/10/08 04:16:14;;;;;;;10.95;5.72;;;12.50;99.90;;;;;;5011177;28;20448;-45
2022/10/08 04:18:40;;;;;;;9.07;5.43;;;12.50;99.90;;;;;;5011826;28;20029;-45
2022/10/08 04:21:07;;;;;;;14.02;5.97;;;12.50;99.90;;;;;;5011914;28;20030;-44
2022/10/08 04:23:35;;;;;;;9.27;5.55;;;12.50;99.90;;;;;;5011606;28;20018;-45
2022/10/08 04:26:01;;;;;;;18.88;5.80;;;12.50;99.90;;;;;;5011823;28;20583;-44
2022/10/08 04:28:26;;;;;;;12.82;4.35;;;12.50;99.90;;;;;;5011021;28;20077;-46
2022/10/08 04:31:00;;;;;;;10.98;5.38;;;12.50;99.90;;;;;;5011814;28;20054;-46
2022/10/08 04:33:27;;;;;;;9.15;5.20;;;12.40;99.90;;;;;;5011635;28;20029;-46
2022/10/08 04:35:53;;;;;;;9.10;4.63;;;12.40;99.90;;;;;;5011500;28;20030;-43
2022/10/08 04:38:19;;;;;;;16.00;5.72;;;12.50;99.90;;;;;;5011618;28;20097;-47
2022/10/08 04:40:45;;;;;;;7.68;4.05;;;12.40;99.90;;;;;;5011691;28;20453;-48
2022/10/08 04:43:10;;;;;;;13.27;5.00;;;12.40;99.90;;;;;;5011508;28;20367;-44
2022/10/08 04:45:43;;;;;;;8.98;4.50;;;12.40;99.90;;;;;;5011645;28;20053;-45
2022/10/08 04:48:09;;;;;;;10.50;4.40;;;12.40;99.90;;;;;;5011471;28;20552;-46
2022/10/08 04:50:35;;;;;;;11.23;4.50;;;12.40;99.90;;;;;;5011772;28;20505;-43
2022/10/08 04:53:00;;;;;;;16.05;4.93;;;12.30;99.90;;;;;;5011279;28;20030;-46
2022/10/08 04:55:26;;;;;;;7.85;5.72;;;12.30;99.90;;;;;;5010259;28;20084;-49
2022/10/08 04:57:51;;;;;;;10.80;4.18;;;12.20;99.90;;;;;;5011489;28;20057;-45
2022/10/08 05:00:17;;;;;;;13.25;4.28;;;12.20;99.90;;;;;;5011579;28;20068;-45
2022/10/08 05:02:42;;;;;;;7.82;3.95;;;12.20;99.90;;;;;;5011377;28;20022;-47
2022/10/08 05:05:08;;;;;;;13.15;4.40;;;12.20;99.90;;;;;;5011263;28;20036;-45
2022/10/08 05:07:33;;;;;;;8.57;3.58;;;12.10;99.90;;;;;;5011717;28;20022;-47
2022/10/08 05:09:59;;;;;;;15.75;5.18;;;12.00;99.90;;;;;;5010077;28;20030;-49
2022/10/08 05:12:24;;;;;;;11.98;4.82;;;12.10;99.90;;;;;;5011250;28;20026;-46
2022/10/08 05:14:50;;;;;;;10.50;3.45;;;12.00;99.90;;;;;;5011482;28;20023;-44
2022/10/08 05:17:15;;;;;;;10.50;4.47;;;12.00;99.90;;;;;;5011221;28;20053;-46
2022/10/08 05:19:41;;;;;;;10.35;4.00;;;12.00;99.90;;;;;;5011101;28;20033;-45
2022/10/08 05:22:06;;;;;;;12.50;3.53;;;12.00;99.90;;;;;;5011041;28;20022;-48
2022/10/08 05:24:32;;;;;;;11.07;3.65;;;12.00;99.90;;;;;;5009964;28;20030;-44
2022/10/08 05:26:58;;;;;;;10.32;3.05;;;12.00;99.90;;;;;;5011169;28;20026;-45
2022/10/08 05:29:24;;;;;;;8.32;3.92;;;12.10;99.90;;;;;;5014202;28;20026;-49
2022/10/08 05:31:49;;;;;;;9.27;4.07;;;12.10;99.90;;;;;;5015408;28;20080;-47
2022/10/08 05:34:15;;;;;;;14.57;4.25;;;12.10;99.90;;;;;;5013314;28;20037;-45
2022/10/08 05:36:40;;;;;;;12.55;4.32;;;12.10;99.90;;;;;;5013423;28;20076;-47
2022/10/08 05:39:06;;;;;;;7.63;3.53;;;12.10;99.90;;;;;;5014828;28;20440;-45
2022/10/08 05:41:36;;;;;;;5.10;2.97;;;12.10;99.90;;;;;;5014863;28;20030;-45
2022/10/08 05:44:02;;;;;;;10.38;3.42;;;12.00;99.90;;;;;;5013037;28;20133;-47
2022/10/08 05:46:29;;;;;;;8.70;3.00;;;12.00;99.90;;;;;;5014891;28;20025;-44
2022/10/08 05:48:57;;;;;;;10.30;3.30;;;12.00;99.90;;;;;;5014562;28;20026;-45
2022/10/08 05:51:23;;;;;;;10.32;3.60;;;12.10;99.90;;;;;;5014724;28;20511;-45
2022/10/08 05:53:50;;;;;;;9.13;3.20;;;12.10;99.90;;;;;;5014362;28;20026;-48
2022/10/08 05:56:19;;;;;;;9.68;3.47;;;12.00;99.90;;;;;;5013363;28;20030;-45
2022/10/08 05:58:45;;;;;;;14.82;3.78;;;12.00;99.90;;;;;;5014407;28;20022;-46
2022/10/08 06:01:19;;;;;;;9.60;3.33;;;12.10;99.90;;;;;;5013341;28;20025;-47
2022/10/08 06:03:53;;;;;;;8.05;3.58;;;12.10;99.90;;;;;;5014394;28;20022;-47
2022/10/08 06:06:19;;;;;;;13.77;3.63;;;12.10;99.90;;;;;;5013367;28;20045;-45
2022/10/08 06:08:46;;;;;;;12.70;3.50;;;12.10;99.90;;;;;;5014307;28;20064;-46
2022/10/08 06:11:12;;;;;;;8.68;3.40;;;12.10;99.90;;;;;;5014216;28;20029;-46
2022/10/08 06:13:37;;;;;;;10.15;3.50;;;12.10;99.90;;;;;;5014183;28;20033;-46
2022/10/08 06:16:08;;;;;;;10.93;3.53;;;12.00;99.90;;;;;;5014354;28;20080;-47
2022/10/08 06:18:36;;;;;;;14.07;3.67;;;12.10;99.90;;;;;;5014017;28;20021;-47
2022/10/08 06:21:07;;;;;;;6.90;3.00;;;12.10;99.90;;;;;;5014255;28;20474;-46
2022/10/08 06:23:33;;;;;;;7.38;3.70;;;12.10;99.90;;;;;;5014380;28;20489;-44
2022/10/08 06:26:04;;;;;;;7.65;3.45;;;12.10;99.90;;;;;;5014098;28;20029;-46
2022/10/08 06:28:30;;;;;;;12.20;3.88;;;12.20;99.90;;;;;;5013483;28;20128;-45
2022/10/08 06:30:55;;;;;;;8.10;3.40;;;12.20;99.90;;;;;;5014110;28;20497;-45
2022/10/08 06:33:21;;;;;;;5.15;3.17;;;12.20;99.90;;;;;;5013912;28;20474;-46
2022/10/08 06:35:46;;;;;;;8.02;4.00;;;12.20;99.90;;;;;;5012574;28;20037;-45
2022/10/08 06:38:12;;;;;;;9.82;2.55;;;12.20;99.90;;;;;;5012321;28;20037;-45
2022/10/08 06:40:39;;;;;;;15.57;3.28;;;12.30;99.90;;;;;;5012096;28;20105;-50
2022/10/08 06:43:15;;;;;;;8.75;2.80;;;12.30;99.90;;;;;;5013408;28;20014;-47
2022/10/08 06:45:42;;;;;;;9.93;2.63;;;12.40;99.90;;;;;;5013761;28;20045;-46
2022/10/08 06:48:08;;;;;;;9.77;2.67;;;12.80;99.90;;;;;;5013504;28;20068;-48
2022/10/08 06:50:35;;;;;;;8.52;3.67;;;13.20;99.90;;;;;;5013416;28;20441;-45
2022/10/08 06:53:05;;;;;;;12.45;2.63;;;13.60;99.90;;;;;;5013039;28;20038;-49
2022/10/08 06:55:32;;;;;;;7.95;2.58;;;14.00;99.90;;;;;;5011904;28;20025;-52
2022/10/08 06:57:57;;;;;;;10.80;3.13;;;14.40;99.90;;;;;;5013626;28;20049;-46
2022/10/08 07:00:23;;;;;;;5.93;2.40;;;14.60;99.90;;;;;;5012331;28;20053;-46
2022/10/08 07:02:48;;;;;;;11.18;2.92;;;14.80;99.90;;;;;;5011849;28;20026;-45
2022/10/08 07:05:14;;;;;;;4.60;2.85;;;14.90;99.90;;;;;;5011924;28;20025;-47
2022/10/08 07:07:39;;;;;;;8.43;2.75;;;14.90;99.90;;;;;;5013240;28;20029;-46
2022/10/08 07:10:05;;;;;;;11.75;2.92;;;15.30;99.90;;;;;;5013560;28;20022;-46
2022/10/08 07:12:31;;;;;;;4.68;2.58;;;15.70;99.90;;;;;;5012985;28;20480;-46
2022/10/08 07:14:58;;;;;;;5.05;2.20;;;16.10;99.90;;;;;;5013155;28;20022;-47
2022/10/08 07:17:27;;;;;;;5.43;2.20;;;16.60;99.90;;;;;;5012747;28;20057;-46
2022/10/08 07:19:53;;;;;;;5.05;2.38;;;17.20;99.90;;;;;;5012832;28;20026;-46
2022/10/08 07:22:18;;;;;;;7.53;2.45;;;17.80;99.90;;;;;;5012526;28;20402;-48
2022/10/08 07:24:44;;;;;;;7.10;2.50;;;17.90;99.90;;;;;;5011503;28;20026;-46
2022/10/08 07:27:09;;;;;;;4.68;2.47;;;17.60;99.90;;;;;;5035762;22;20061;-52
2022/10/08 07:29:35;;;;;;;9.35;3.03;;;17.10;99.90;;;;;;5026123;28;20038;-49
2022/10/08 07:32:01;;;;;;;6.10;2.20;;;16.80;99.90;;;;;;5012484;28;20022;-55
2022/10/08 07:34:26;;;;;;;9.88;3.17;;;16.30;99.90;;;;;;5012502;28;20026;-52
2022/10/08 07:36:52;;;;;;;6.88;3.10;;;15.90;99.90;;;;;;5012785;28;20034;-50
2022/10/08 07:39:19;;;;;;;6.47;2.70;;;15.60;99.90;;;;;;5012436;28;20412;-49
2022/10/08 07:41:45;;;;;;;6.57;2.60;;;15.20;99.90;;;;;;5012357;28;20033;-54
2022/10/08 07:44:11;;;;;;;7.95;2.75;;;15.00;99.90;;;;;;5012069;28;20022;-52
2022/10/08 07:46:42;;;;;;;7.18;2.38;;;14.70;99.90;;;;;;5012371;28;20037;-52
2022/10/08 07:49:07;;;;;;;15.38;3.25;;;14.60;99.90;;;;;;5012178;28;20033;-52
2022/10/08 07:51:33;;;;;;;11.25;2.85;;;14.50;99.90;;;;;;5011417;28;20425;-56
2022/10/08 07:54:00;;;;;;;11.23;3.60;;;14.40;99.90;;;;;;5011910;28;20160;-51
2022/10/08 07:56:26;;;;;;;9.63;3.08;;;14.30;99.90;;;;;;5011022;28;20448;-54
2022/10/08 07:58:51;;;;;;;9.40;3.70;;;14.20;99.90;;;;;;5012048;28;20026;-53
2022/10/08 08:01:19;;;;;;;11.45;3.88;;;14.10;99.90;;;;;;5012252;28;20068;-51
2022/10/08 08:03:45;;;;;;;10.20;3.15;;;14.10;99.90;;;;;;5011744;28;20097;-52
2022/10/08 08:06:15;;;;;;;7.43;2.65;;;14.10;99.90;;;;;;5011901;28;20153;-49
2022/10/08 08:08:42;;;;;;;10.57;5.10;;;14.10;99.90;;;;;;5010632;28;20057;-51
2022/10/08 08:11:10;;;;;;;6.72;2.78;;;14.00;99.90;;;;;;5011783;28;20033;-51
2022/10/08 08:13:38;;;;;;;16.35;2.95;;;14.10;99.90;;;;;;5011590;28;20029;-46
2022/10/08 08:16:09;;;;;;;10.38;3.20;;;14.10;99.90;;;;;;5011966;28;20477;-53
2022/10/08 08:18:37;;;;;;;9.40;3.58;;;14.10;99.90;;;;;;5011703;28;20026;-53
2022/10/08 08:21:05;;;;;;;10.32;2.92;;;14.10;99.90;;;;;;5011866;28;20022;-54
2022/10/08 08:23:36;;;;;;;7.10;3.00;;;14.20;99.90;;;;;;5011553;28;20022;-54
2022/10/08 08:26:04;;;;;;;5.65;2.97;;;14.20;99.90;;;;;;5011772;28;20409;-50
2022/10/08 08:28:29;;;;;;;7.90;3.00;;;14.20;99.90;;;;;;5011007;28;20030;-50
2022/10/08 08:31:15;;;;;;;6.35;3.05;;;14.30;99.90;;;;;;5011621;28;20045;-48
2022/10/08 08:33:42;;;;;;;9.45;3.28;;;14.30;99.90;;;;;;5011333;28;20095;-56
2022/10/08 08:36:09;;;;;;;6.65;2.30;;;14.50;99.90;;;;;;5011440;28;20037;-45
2022/10/08 08:38:36;;;;;;;9.70;2.90;;;14.60;99.90;;;;;;5010095;28;20026;-49
2022/10/08 08:41:13;;;;;;;6.63;1.80;;;14.90;99.90;;;;;;5011572;28;20022;-55
2022/10/08 08:43:39;;;;;;;7.55;2.67;;;15.10;99.90;;;;;;5011341;28;20310;-51
2022/10/08 08:46:05;;;;;;;7.82;2.13;;;15.30;99.90;;;;;;5011369;28;20509;-45
2022/10/08 08:48:32;;;;;;;6.55;2.25;;;15.30;99.90;;;;;;5011150;28;20405;-48
2022/10/08 08:50:59;;;;;;;7.28;1.98;;;15.30;99.90;;;;;;5011434;28;20549;-51
2022/10/08 08:53:25;;;;;;;17.13;3.00;;;15.40;99.90;;;;;;5011223;28;20030;-49
2022/10/08 08:55:57;;;;;;;6.05;2.20;;;15.40;99.90;;;;;;5011363;28;20030;-49
2022/10/08 08:58:41;;;;;;;7.43;1.67;;;15.50;99.90;;;;;;5011271;28;20022;-52
2022/10/08 09:01:41;;;;;;;8.95;1.67;;;15.40;99.90;;;;;;5011584;28;20396;-46
2022/10/08 09:04:37;;;;;;;8.30;2.35;;;15.40;99.90;;;;;;5014940;28;20026;-51
2022/10/08 09:07:05;;;;;;;;;;;15.40;99.90;;;;;;5011333;28;20041;-51
2022/10/08 09:09:50;;;;;;;6.63;1.70;;;15.30;99.90;;;;;;5015340;28;19912;-54
2022/10/08 09:12:51;;;;;;;7.88;2.10;;;15.40;99.90;;;;;;5015170;28;20033;-49
2022/10/08 09:15:25;;;;;;;7.18;2.45;;;15.30;99.90;;;;;;5015215;28;20409;-52
2022/10/08 09:17:51;;;;;;;10.90;3.28;;;15.30;99.90;;;;;;5015625;28;20042;-53
2022/10/08 09:20:20;;;;;;;3.75;1.52;;;15.30;99.90;;;;;;5013914;28;20026;-57
2022/10/08 09:22:48;;;;;;;9.13;2.03;;;15.40;99.90;;;;;;5014753;28;20109;-47
2022/10/08 09:25:20;;;;;;;6.28;1.55;;;15.50;99.90;;;;;;5014988;28;20069;-55
2022/10/08 09:28:01;;;;;;;5.10;2.28;;;15.60;99.90;;;;;;5014452;28;20034;-56
2022/10/08 09:30:28;;;;;;;8.13;1.88;;;15.60;99.90;;;;;;5014939;28;20025;-49
2022/10/08 09:32:57;;;;;;;6.72;1.60;;;15.60;99.90;;;;;;5014730;28;20029;-51
2022/10/08 09:35:23;;;;;;;7.63;1.50;;;15.70;99.90;;;;;;5014792;28;20026;-48
2022/10/08 09:37:50;;;;;;;5.97;1.80;;;15.70;99.90;;;;;;5014601;28;20042;-53
2022/10/08 09:40:25;;;;;;;8.43;1.42;;;15.70;99.90;;;;;;5014648;28;20030;-50
2022/10/08 09:43:13;;;;;;;4.97;1.52;;;15.60;99.90;;;;;;5014436;28;20018;-55
2022/10/08 09:45:41;;;;;;;12.25;2.00;;;15.60;99.90;;;;;;5014668;28;20117;-51
2022/10/08 09:48:24;;;;;;;5.68;2.55;;;15.60;99.90;;;;;;5014445;28;20112;-48
2022/10/08 09:50:50;;;;;;;6.88;2.08;;;15.60;99.90;;;;;;5014603;28;20106;-46
2022/10/08 09:53:16;;;;;;;6.53;1.95;;;15.60;99.90;;;;;;5014465;28;20049;-53
2022/10/08 09:55:50;;;;;;;7.35;1.83;;;15.50;99.90;;;;;;5014444;28;20057;-54
2022/10/08 09:58:18;;;;;;;6.25;1.60;;;15.50;99.90;;;;;;5014256;28;20018;-54
2022/10/08 10:00:43;;;;;;;3.63;1.50;;;15.50;99.90;;;;;;5014335;28;20026;-49
2022/10/08 10:03:16;;;;;;;4.57;1.60;;;15.50;99.90;;;;;;5014095;28;20033;-52
2022/10/08 10:05:43;;;;;;;6.32;2.47;;;15.60;99.90;;;;;;5014313;28;20033;-54
2022/10/08 10:08:45;;;;;;;6.43;2.20;;;15.50;99.90;;;;;;5014055;28;20026;-50
2022/10/08 10:11:30;;;;;;;5.30;1.67;;;15.50;99.90;;;;;;5014133;28;20547;-49
2022/10/08 10:13:58;;;;;;;4.82;1.45;;;15.50;99.90;;;;;;5013021;28;20117;-55
2022/10/08 10:16:33;;;;;;;7.45;2.50;;;15.60;99.90;;;;;;5013866;28;20069;-54
2022/10/08 10:19:03;;;;;;;3.63;1.95;;;15.70;99.90;;;;;;5014118;28;20402;-53
2022/10/08 10:21:41;;;;;;;7.63;2.15;;;15.70;99.90;;;;;;5014060;28;20022;-52
2022/10/08 10:24:47;;;;;;;6.20;3.15;;;15.80;99.90;;;;;;5013997;28;20071;-52
2022/10/08 10:27:24;;;;;;;5.40;1.67;;;15.80;99.90;;;;;;5008826;28;20030;-53
2022/10/08 10:30:12;;;;;;;6.97;2.63;;;15.90;99.90;;;;;;5013512;28;20037;-46
2022/10/08 10:32:44;;;;;;;7.32;2.47;;;16.00;99.90;;;;;;5013470;28;20048;-53
2022/10/08 10:35:31;;;;;;;21.95;4.57;;;16.00;99.90;;;;;;5013582;28;20033;-52
2022/10/08 10:38:30;;;;;;;7.03;2.63;;;16.00;99.90;;;;;;5013737;28;20028;-55
2022/10/08 10:41:08;;;;;;;4.18;1.88;;;16.00;99.90;;;;;;5010124;28;20030;-56
2022/10/08 10:43:44;;;;;;;7.10;2.08;;;16.10;99.90;;;;;;5013558;28;20393;-57
2022/10/08 10:46:24;;;;;;;6.68;2.42;;;16.20;99.90;;;;;;5013411;28;20490;-57
2022/10/08 10:48:50;;;;;;;7.00;1.83;;;16.20;99.90;;;;;;5013026;28;20026;-54
2022/10/08 10:51:36;;;;;;;5.03;1.92;;;16.20;99.90;;;;;;5013139;28;20030;-53
2022/10/08 10:54:29;;;;;;;3.40;1.42;;;16.30;99.90;;;;;;5011736;28;20394;-49
2022/10/08 10:57:22;;;;;;;7.25;2.15;;;16.30;99.90;;;;;;5013227;28;20108;-49
2022/10/08 11:00:00;;;;;;;3.22;1.58;;;16.40;99.90;;;;;;4999127;28;20041;-48
2022/10/08 11:02:37;;;;;;;6.97;1.88;;;16.50;99.90;;;;;;5012852;28;20049;-53
2022/10/08 11:05:22;;;;;;;2.97;1.40;;;16.50;99.90;;;;;;5013176;28;20022;-54
2022/10/08 11:08:11;;;;;;;7.23;2.07;;;16.60;99.90;;;;;;5012976;28;20026;-54
2022/10/08 11:10:52;;;;;;;8.15;2.17;;;16.70;99.90;;;;;;5011544;28;20029;-57
2022/10/08 11:13:21;;;;;;;5.80;1.73;;;16.90;99.90;;;;;;5012731;28;20029;-52
2022/10/08 11:15:59;;;;;;;4.40;1.73;;;17.10;99.90;;;;;;5012659;28;20504;-56
2022/10/08 11:18:51;;;;;;;3.13;1.20;;;17.30;99.90;;;;;;5012682;28;20030;-47
2022/10/08 11:21:46;;;;;;;3.78;1.58;;;17.30;99.90;;;;;;5012323;28;20022;-55
2022/10/08 11:24:15;;;;;;;5.95;1.58;;;17.40;99.90;;;;;;5012704;28;20022;-50
2022/10/08 11:26:58;;;;;;;7.75;1.92;;;17.40;99.90;;;;;;5012777;28;20022;-52
2022/10/08 11:29:42;;;;;;;4.13;1.38;;;17.40;99.90;;;;;;5010448;28;20445;-53
2022/10/08 11:32:13;;;;;;;3.67;1.55;;;17.30;99.90;;;;;;5010680;28;20033;-54
2022/10/08 11:34:47;;;;;;;3.70;1.52;;;17.20;99.90;;;;;;5011972;28;20092;-53
2022/10/08 11:37:41;;;;;;;108.78;72.88;;;17.10;99.90;;;;;;5011772;28;20064;-53
2022/10/08 11:40:44;;;;;;;148.52;92.38;;;17.10;99.90;;;;;;5012752;28;20033;-51
2022/10/08 11:43:32;;;;;;;7.25;3.22;;;17.10;99.90;;;;;;5012118;28;20052;-52
2022/10/08 11:46:27;;;;;;;4.07;1.65;;;17.30;99.90;;;;;;5011823;28;20111;-52
2022/10/08 11:48:55;;;;;;;5.18;1.67;;;17.30;99.90;;;;;;5012197;28;20515;-54
2022/10/08 11:51:20;;;;;;;4.45;1.30;;;17.30;99.90;;;;;;5012150;28;20038;-55
2022/10/08 11:54:07;;;;;;;4.72;1.52;;;17.30;99.90;;;;;;5011868;28;20037;-54
2022/10/08 11:56:36;;;;;;;2.35;1.05;;;17.40;99.90;;;;;;5012161;28;20076;-51
2022/10/08 11:59:26;;;;;;;3.78;1.52;;;17.40;99.90;;;;;;5011993;28;20022;-53
2022/10/08 12:01:56;;;;;;;4.43;1.70;;;17.30;99.90;;;;;;5011448;28;20034;-49
2022/10/08 12:04:31;;;;;;;2.10;1.42;;;17.30;99.90;;;;;;5012041;28;20049;-55
2022/10/08 12:07:23;;;;;;;9.98;1.85;;;17.40;99.90;;;;;;5012049;28;20030;-49
2022/10/08 12:10:04;;;;;;;3.80;1.70;;;17.40;99.90;;;;;;5002927;28;20034;-55
2022/10/08 12:12:49;;;;;;;5.30;1.80;;;17.30;99.90;;;;;;5011573;28;20065;-53
2022/10/08 12:15:37;;;;;;;3.72;1.42;;;17.40;99.90;;;;;;4998020;28;20490;-51
2022/10/08 12:18:09;;;;;;;5.82;2.75;;;17.40;99.90;;;;;;4999174;28;20034;-49
2022/10/08 12:20:36;;;;;;;3.88;1.30;;;17.40;99.90;;;;;;5011973;28;20433;-50
2022/10/08 12:23:05;;;;;;;8.00;1.90;;;17.40;99.90;;;;;;5011413;28;20026;-54
2022/10/08 12:25:44;;;;;;;5.75;1.50;;;17.30;99.90;;;;;;5011727;28;20025;-54
2022/10/08 12:28:18;;;;;;;5.28;1.65;;;17.30;99.90;;;;;;5011149;28;20512;-52
2022/10/08 12:30:47;;;;;;;6.13;1.67;;;17.50;99.90;;;;;;5011769;28;20025;-47
2022/10/08 12:33:13;;;;;;;5.53;1.70;;;17.40;99.90;;;;;;5011203;28;20048;-54
2022/10/08 12:36:14;;;;;;;6.93;2.30;;;17.30;99.90;;;;;;5011510;28;20128;-53
2022/10/08 12:39:09;;;;;;;4.97;1.90;;;17.30;99.90;;;;;;5010782;28;20030;-50
2022/10/08 12:41:49;;;;;;;4.72;1.95;;;17.40;99.90;;;;;;5012207;28;20486;-49
2022/10/08 12:44:47;;;;;;;5.18;1.67;;;17.40;99.90;;;;;;5011334;28;20022;-55
2022/10/08 12:47:29;;;;;;;6.03;1.77;;;17.40;99.90;;;;;;5011454;28;20030;-50
2022/10/08 12:50:05;;;;;;;3.58;1.48;;;17.40;99.90;;;;;;5011405;28;20602;-54
2022/10/08 12:52:33;;;;;;;6.95;1.88;;;17.30;99.90;;;;;;5011099;28;20430;-53
2022/10/08 12:55:00;;;;;;;3.72;1.52;;;17.20;99.90;;;;;;5011422;28;20037;-52
2022/10/08 12:57:32;;;;;;;14.15;8.50;;;17.20;99.90;;;;;;5011346;28;20026;-53
2022/10/08 12:59:59;;;;;;;37.53;22.83;;;17.20;99.90;;;;;;5011412;28;20638;-54
2022/10/08 13:02:39;;;;;;;4.50;2.55;;;17.10;99.90;;;;;;5011069;28;20061;-49
2022/10/08 13:05:26;;;;;;;4.57;1.30;;;17.20;99.90;;;;;;5011330;28;20426;-53
2022/10/08 13:07:52;;;;;;;5.22;1.63;;;17.20;99.90;;;;;;5011353;28;20030;-51